Time;durP1;ratioP1;P1;durP2;ratioP2;P2;SDS_P1;SDS_P2;PMS_P1;PMS_P2;Temp;Humidity;BMP_temperature;BMP_pressure;BME280_temperature;BME280_humidity;BME280_pressure;Samples;Min_cycle;Max_cycle;Signal;HPM_P1;HPM_P2
2022/06/11 00:01:39;;;;;;;12.73;3.67;;;;;;;-142.64;100.00;58178.75;5052158;28;20487;-63
2022/06/11 00:04:08;;;;;;;11.45;3.40;;;;;;;-142.64;100.00;58178.75;5052127;28;20029;-65
2022/06/11 00:06:36;;;;;;;9.75;3.40;;;;;;;-142.64;100.00;58178.75;5052014;28;20037;-66
2022/06/11 00:09:03;;;;;;;17.13;4.82;;;;;;;-142.64;100.00;58178.75;5051534;28;20049;-66
2022/06/11 00:11:29;;;;;;;10.88;3.47;;;;;;;-142.64;100.00;58178.75;5050939;28;20040;-66
2022/06/11 00:13:55;;;;;;;14.07;3.70;;;;;;;-142.64;100.00;58178.75;5051944;28;20029;-66
2022/06/11 00:16:23;;;;;;;13.68;4.00;;;;;;;-142.64;100.00;58178.75;5050791;28;20029;-64
2022/06/11 00:18:50;;;;;;;10.38;3.60;;;;;;;-142.64;100.00;58178.75;5033894;28;20476;-63
2022/06/11 00:21:16;;;;;;;12.75;4.32;;;;;;;-142.64;100.00;58178.75;5051763;28;20041;-63
2022/06/11 00:23:43;;;;;;;11.32;3.28;;;;;;;-142.64;100.00;58178.75;5055214;28;20033;-64
2022/06/11 00:26:09;;;;;;;9.88;3.95;;;;;;;-142.64;100.00;58178.75;5056839;28;20037;-63
2022/06/11 00:28:35;;;;;;;11.85;3.45;;;;;;;-142.64;100.00;58178.75;5055014;28;20041;-65
2022/06/11 00:31:02;;;;;;;10.68;3.85;;;;;;;-142.64;100.00;58178.75;5056233;28;20040;-65
2022/06/11 00:33:27;;;;;;;10.77;3.17;;;;;;;-142.64;100.00;58178.75;5055973;28;20045;-65
2022/06/11 00:35:53;;;;;;;10.43;3.63;;;;;;;-142.64;100.00;58178.75;5055582;28;20381;-64
2022/06/11 00:38:19;;;;;;;9.77;2.85;;;;;;;-142.64;100.00;58178.75;5053996;28;20088;-65
2022/06/11 00:40:47;;;;;;;8.82;2.88;;;;;;;-142.64;100.00;58178.75;5054419;28;20041;-65
2022/06/11 00:43:18;;;;;;;8.10;3.40;;;;;;;-142.64;100.00;58178.75;5054457;28;20082;-65
2022/06/11 00:45:56;;;;;;;11.43;3.65;;;;;;;-142.64;100.00;58178.75;5055464;28;20040;-63
2022/06/11 00:48:35;;;;;;;9.27;3.33;;;;;;;-142.64;100.00;58178.75;5054006;28;20040;-65
2022/06/11 00:51:04;;;;;;;6.97;2.92;;;;;;;-142.64;100.00;58178.75;5054119;28;20040;-65
2022/06/11 00:53:38;;;;;;;11.95;2.90;;;;;;;-142.64;100.00;58178.75;5054432;28;20033;-64
2022/06/11 00:56:07;;;;;;;11.57;3.97;;;;;;;-142.64;100.00;58178.75;5055385;28;20468;-63
2022/06/11 00:58:38;;;;;;;8.07;2.83;;;;;;;-142.64;100.00;58178.75;5053983;28;20486;-64
2022/06/11 01:01:05;;;;;;;13.20;3.08;;;;;;;-142.64;100.00;58178.75;5054255;28;20035;-61
2022/06/11 01:03:35;;;;;;;8.90;3.30;;;;;;;-142.64;100.00;58178.75;5053849;28;20415;-64
2022/06/11 01:06:10;;;;;;;10.13;2.63;;;;;;;-142.64;100.00;58178.75;5055116;28;20033;-63
2022/06/11 01:09:03;;;;;;;8.38;2.60;;;;;;;-142.64;100.00;58178.75;5053770;28;20084;-65
2022/06/11 01:11:53;;;;;;;8.73;2.88;;;;;;;-142.64;100.00;58178.75;5054979;28;20054;-64
2022/06/11 01:14:45;;;;;;;9.65;3.20;;;;;;;-142.64;100.00;58178.75;5055105;28;20036;-66
2022/06/11 01:17:22;;;;;;;11.43;3.55;;;;;;;-142.64;100.00;58178.75;5053753;28;20071;-64
2022/06/11 01:20:03;;;;;;;8.55;2.35;;;;;;;-142.64;100.00;58178.75;5054569;28;20455;-64
2022/06/11 01:23:05;;;;;;;8.30;2.63;;;;;;;-142.64;100.00;58178.75;5053699;28;20029;-64
2022/06/11 01:25:53;;;;;;;10.77;3.40;;;;;;;-142.64;100.00;58178.75;5053307;28;20028;-62
2022/06/11 01:28:37;;;;;;;10.15;2.83;;;;;;;-142.64;100.00;58178.75;5054482;28;20037;-65
2022/06/11 01:31:26;;;;;;;9.13;3.13;;;;;;;-142.64;100.00;58178.75;5054217;28;20047;-64
2022/06/11 01:34:04;;;;;;;10.52;2.90;;;;;;;-142.64;100.00;58178.75;5052703;28;20033;-65
2022/06/11 01:36:34;;;;;;;7.35;2.70;;;;;;;-142.64;100.00;58178.75;5054459;28;20074;-65
2022/06/11 01:39:20;;;;;;;7.07;3.33;;;;;;;-142.64;100.00;58178.75;5053291;28;20044;-65
2022/06/11 01:41:58;;;;;;;8.98;2.58;;;;;;;-142.64;100.00;58178.75;5054361;28;20052;-65
2022/06/11 01:44:28;;;;;;;10.13;2.95;;;;;;;-142.64;100.00;58178.75;5036537;28;20108;-65
2022/06/11 01:46:56;;;;;;;10.98;2.85;;;;;;;-142.64;100.00;58178.75;5053170;28;20036;-64
2022/06/11 01:49:21;;;;;;;9.48;3.30;;;;;;;-142.64;100.00;58178.75;5054475;28;20041;-66
2022/06/11 01:52:21;;;;;;;14.02;2.70;;;;;;;-142.64;100.00;58178.75;5052899;28;20533;-64
2022/06/11 01:54:53;;;;;;;13.05;3.45;;;;;;;-142.64;100.00;58178.75;5052817;28;20037;-65
2022/06/11 01:57:43;;;;;;;10.23;2.80;;;;;;;-142.64;100.00;58178.75;5053960;28;20032;-65
2022/06/11 02:00:09;;;;;;;14.82;3.80;;;;;;;-142.64;100.00;58178.75;5054134;28;20087;-66
2022/06/11 02:02:50;;;;;;;10.00;2.85;;;;;;;-142.64;100.00;58178.75;5054219;28;20424;-65
2022/06/11 02:05:32;;;;;;;;;;;;;;;-142.64;100.00;58178.75;5053146;28;20033;-66
2022/06/11 02:08:10;;;;;;;22.85;4.07;;;;;;;-142.64;100.00;58178.75;5053588;28;19962;-64
2022/06/11 02:10:54;;;;;;;10.48;3.67;;;;;;;-142.64;100.00;58178.75;5053989;28;20082;-65
2022/06/11 02:13:50;;;;;;;12.65;3.30;;;;;;;-142.64;100.00;58178.75;5052714;28;20057;-65
2022/06/11 02:16:29;;;;;;;13.38;3.38;;;;;;;-142.64;100.00;58178.75;5053783;28;20083;-64
2022/06/11 02:18:56;;;;;;;14.95;3.80;;;;;;;-142.64;100.00;58178.75;5052774;28;20571;-63
2022/06/11 02:21:25;;;;;;;12.60;2.97;;;;;;;-142.64;100.00;58178.75;5052627;28;20100;-64
2022/06/11 02:23:55;;;;;;;11.60;3.58;;;;;;;-142.64;100.00;58178.75;5052233;28;20128;-64
2022/06/11 02:26:28;;;;;;;13.50;3.63;;;;;;;-142.64;100.00;58178.75;5052285;28;20112;-65
2022/06/11 02:28:54;;;;;;;15.98;4.10;;;;;;;-142.64;100.00;58178.75;5051408;28;20550;-65
2022/06/11 02:31:23;;;;;;;13.60;4.18;;;;;;;-142.64;100.00;58178.75;5035517;28;20029;-65
2022/06/11 02:33:49;;;;;;;12.25;3.65;;;;;;;-142.64;100.00;58178.75;5052331;28;20032;-65
2022/06/11 02:36:22;;;;;;;14.02;3.80;;;;;;;-142.64;100.00;58178.75;5051893;28;20041;-65
2022/06/11 02:38:48;;;;;;;21.50;4.60;;;;;;;-142.64;100.00;58178.75;5053342;28;20037;-65
2022/06/11 02:41:17;;;;;;;19.33;4.15;;;;;;;-142.64;100.00;58178.75;5053317;28;20037;-65
2022/06/11 02:43:44;;;;;;;13.38;3.78;;;;;;;-142.64;100.00;58178.75;5052118;28;20029;-66
2022/06/11 02:48:54;;;;;;;13.70;4.03;;;;;;;-142.64;100.00;58178.75;5053109;28;20056;-65
2022/06/11 02:51:21;;;;;;;18.48;3.70;;;;;;;-142.64;100.00;58178.75;5051985;28;20033;-64
2022/06/11 02:53:46;;;;;;;17.40;4.10;;;;;;;-142.64;100.00;58178.75;5051700;28;20060;-63
2022/06/11 02:56:13;;;;;;;17.67;3.95;;;;;;;-142.64;100.00;58178.75;5053113;28;20079;-64
2022/06/11 02:58:39;;;;;;;13.52;3.75;;;;;;;-142.64;100.00;58178.75;5052907;28;20417;-64
2022/06/11 03:01:05;;;;;;;16.85;4.20;;;;;;;-142.64;100.00;58178.75;5053000;28;20039;-64
2022/06/11 03:03:30;;;;;;;14.23;4.43;;;;;;;-142.64;100.00;58178.75;5051715;28;20032;-64
2022/06/11 03:05:58;;;;;;;13.30;3.42;;;;;;;-142.64;100.00;58178.75;5052730;28;20505;-65
2022/06/11 03:08:23;;;;;;;20.23;4.38;;;;;;;-142.64;100.00;58178.75;5052589;28;20057;-65
2022/06/11 03:10:54;;;;;;;16.02;4.03;;;;;;;-142.64;100.00;58178.75;5052857;28;20399;-63
2022/06/11 03:13:20;;;;;;;;;;;;;;;-142.64;100.00;58178.75;5053291;28;20477;-64
2022/06/11 03:15:45;;;;;;;18.35;3.60;;;;;;;-142.64;100.00;58178.75;5052534;28;19949;-63
2022/06/11 03:18:10;;;;;;;21.55;4.03;;;;;;;-142.64;100.00;58178.75;5051597;28;20048;-64
2022/06/11 03:20:36;;;;;;;11.55;3.40;;;;;;;-142.64;100.00;58178.75;5051273;28;20037;-65
2022/06/11 03:23:01;;;;;;;19.67;4.57;;;;;;;-142.64;100.00;58178.75;5051427;28;20037;-66
2022/06/11 03:25:26;;;;;;;15.43;3.97;;;;;;;-142.64;100.00;58178.75;5052697;28;20025;-65
2022/06/11 03:27:52;;;;;;;15.10;3.33;;;;;;;-142.64;100.00;58178.75;5052492;28;20484;-65
2022/06/11 03:30:18;;;;;;;12.68;3.92;;;;;;;-142.64;100.00;58178.75;5051040;28;20044;-64
2022/06/11 03:32:44;;;;;;;16.10;4.75;;;;;;;-142.64;100.00;58178.75;5051187;28;20041;-65
2022/06/11 03:35:10;;;;;;;16.45;3.90;;;;;;;-142.64;100.00;58178.75;5052342;28;20115;-64
2022/06/11 03:37:35;;;;;;;18.85;4.38;;;;;;;-142.64;100.00;58178.75;5052560;28;20044;-66
2022/06/11 03:40:02;;;;;;;17.48;3.88;;;;;;;-142.64;100.00;58178.75;5051153;28;20029;-66
2022/06/11 03:42:27;;;;;;;14.50;4.00;;;;;;;-142.64;100.00;58178.75;5052212;28;20032;-65
2022/06/11 03:44:54;;;;;;;19.05;4.43;;;;;;;-142.64;100.00;58178.75;5051903;28;20036;-65
2022/06/11 03:47:20;;;;;;;15.13;3.80;;;;;;;-142.64;100.00;58178.75;5034661;28;20028;-65
2022/06/11 03:49:45;;;;;;;18.92;4.40;;;;;;;-142.64;100.00;58178.75;5052211;28;20106;-63
2022/06/11 03:52:11;;;;;;;18.98;4.68;;;;;;;-142.64;100.00;58178.75;5052018;28;20033;-64
2022/06/11 03:54:37;;;;;;;16.33;4.00;;;;;;;-142.64;100.00;58178.75;5052301;28;20091;-65
2022/06/11 03:57:03;;;;;;;22.25;4.60;;;;;;;-142.64;100.00;58178.75;5050664;28;20129;-65
2022/06/11 03:59:29;;;;;;;14.55;4.35;;;;;;;-142.64;100.00;58178.75;5062755;28;20094;-65
2022/06/11 04:01:54;;;;;;;21.92;4.97;;;;;;;-142.64;100.00;58178.75;5070129;28;20033;-64
2022/06/11 04:04:21;;;;;;;18.38;5.03;;;;;;;-142.64;100.00;58178.75;5071913;28;20033;-64
2022/06/11 04:06:52;;;;;;;14.55;3.90;;;;;;;-142.64;100.00;58178.75;5070903;28;20039;-64
2022/06/11 04:09:38;;;;;;;22.90;5.28;;;;;;;-142.64;100.00;58178.75;5070541;28;20055;-65
2022/06/11 04:12:09;;;;;;;18.33;5.50;;;;;;;-142.64;100.00;58178.75;5072038;28;20040;-64
2022/06/11 04:14:35;;;;;;;19.67;4.55;;;;;;;-142.64;100.00;58178.75;5070712;28;20021;-64
2022/06/11 04:17:10;;;;;;;17.23;4.57;;;;;;;-142.64;100.00;58178.75;5071706;28;20403;-64
2022/06/11 04:19:38;;;;;;;21.40;5.20;;;;;;;-142.64;100.00;58178.75;5070473;28;20163;-65
2022/06/11 04:22:05;;;;;;;21.65;5.10;;;;;;;-142.64;100.00;58178.75;5071923;28;20040;-65
2022/06/11 04:24:30;;;;;;;21.05;5.07;;;;;;;-142.64;100.00;58178.75;5070744;28;20036;-65
2022/06/11 04:26:58;;;;;;;16.25;4.88;;;;;;;-142.64;100.00;58178.75;5070516;28;20041;-64
2022/06/11 04:29:28;;;;;;;27.45;5.50;;;;;;;-142.64;100.00;58178.75;5070450;28;20040;-64
2022/06/11 04:31:56;;;;;;;19.42;4.47;;;;;;;-142.64;100.00;58178.75;5071929;28;20039;-66
2022/06/11 04:34:22;;;;;;;17.98;4.28;;;;;;;-142.64;100.00;58178.75;5071886;28;20029;-66
2022/06/11 04:36:48;;;;;;;16.67;5.00;;;;;;;-142.64;100.00;58178.75;5071756;28;20032;-64
2022/06/11 04:39:15;;;;;;;25.33;5.82;;;;;;;-142.64;100.00;58178.75;5054060;28;20043;-64
2022/06/11 04:41:41;;;;;;;18.05;5.13;;;;;;;-142.64;100.00;58178.75;5070501;28;20119;-63
2022/06/11 04:44:06;;;;;;;22.40;5.28;;;;;;;-142.64;100.00;58178.75;5070476;28;20401;-65
2022/06/11 04:46:32;;;;;;;22.75;5.07;;;;;;;-142.64;100.00;58178.75;5070503;28;20384;-65
2022/06/11 04:48:59;;;;;;;23.92;5.03;;;;;;;-142.64;100.00;58178.75;5070095;28;20127;-63
2022/06/11 04:51:24;;;;;;;20.67;4.72;;;;;;;-142.64;100.00;58178.75;5070408;28;20463;-63
2022/06/11 04:53:50;;;;;;;16.60;5.45;;;;;;;-142.64;100.00;58178.75;5071464;28;20043;-63
2022/06/11 04:56:19;;;;;;;24.63;6.63;;;;;;;-142.64;100.00;58178.75;5070332;28;20372;-63
2022/06/11 04:58:45;;;;;;;23.38;6.05;;;;;;;-142.64;100.00;58178.75;5071774;28;20388;-65
2022/06/11 05:01:11;;;;;;;28.02;5.97;;;;;;;-142.64;100.00;58178.75;5070348;28;20060;-64
2022/06/11 05:03:37;;;;;;;19.48;5.38;;;;;;;-142.64;100.00;58178.75;5071863;28;20123;-65
2022/06/11 05:06:02;;;;;;;25.88;6.32;;;;;;;-142.64;100.00;58178.75;5052593;28;20462;-65
2022/06/11 05:08:28;;;;;;;34.03;6.38;;;;;;;-142.64;100.00;58178.75;5052189;28;20411;-64
2022/06/11 05:10:53;;;;;;;22.77;5.93;;;;;;;-142.64;100.00;58178.75;5053694;28;20091;-65
2022/06/11 05:13:19;;;;;;;20.92;6.25;;;;;;;-142.64;100.00;58178.75;5054926;28;20091;-64
2022/06/11 05:15:47;;;;;;;25.35;7.45;;;;;;;-142.64;100.00;58178.75;5045020;28;20033;-65
2022/06/11 05:18:13;;;;;;;24.67;6.13;;;;;;;-142.64;100.00;58178.75;5033794;28;20029;-63
2022/06/11 05:20:39;;;;;;;25.98;5.70;;;;;;;-142.64;100.00;58178.75;5034518;28;20155;-65
2022/06/11 05:23:05;;;;;;;17.92;6.10;;;;;;;-142.64;100.00;58178.75;5033521;28;20443;-64
2022/06/11 05:25:32;;;;;;;24.98;6.40;;;;;;;-142.64;100.00;58178.75;5040040;28;20032;-64
2022/06/11 05:27:57;;;;;;;29.45;6.95;;;;;;;-142.64;100.00;58178.75;5054477;28;20163;-64
2022/06/11 05:30:26;;;;;;;18.63;5.35;;;;;;;-142.64;100.00;58178.75;5054633;28;20124;-64
2022/06/11 05:32:52;;;;;;;18.95;5.25;;;;;;;-142.64;100.00;58178.75;5054571;28;20028;-64
2022/06/11 05:35:21;;;;;;;26.85;5.97;;;;;;;-142.64;100.00;58178.75;5053423;28;20178;-63
2022/06/11 05:37:48;;;;;;;19.30;5.45;;;;;;;-142.64;100.00;58178.75;5051062;28;20419;-63
2022/06/11 05:40:17;;;;;;;19.80;5.30;;;;;;;-142.64;100.00;58178.75;5052864;28;20044;-65
2022/06/11 05:42:47;;;;;;;24.02;5.30;;;;;;;-142.64;100.00;58178.75;5054674;28;20044;-65
2022/06/11 05:45:15;;;;;;;19.77;5.67;;;;;;;-142.64;100.00;58178.75;5053468;28;20122;-65
2022/06/11 05:47:41;;;;;;;19.85;6.25;;;;;;;-142.64;100.00;58178.75;5054302;28;20276;-64
2022/06/11 05:50:08;;;;;;;26.27;5.65;;;;;;;-142.64;100.00;58178.75;5051222;28;20041;-65
2022/06/11 05:52:38;;;;;;;19.15;5.00;;;;;;;-142.64;100.00;58178.75;5052723;28;20052;-62
2022/06/11 05:55:04;;;;;;;20.58;5.32;;;;;;;-142.64;100.00;58178.75;5052463;28;20039;-63
2022/06/11 05:57:29;;;;;;;20.02;5.07;;;;;;;-142.64;100.00;58178.75;5052587;28;20052;-63
2022/06/11 05:59:59;;;;;;;15.55;4.82;;;;;;;-142.64;100.00;58178.75;5053471;28;20090;-64
2022/06/11 06:02:26;;;;;;;16.13;4.43;;;;;;;-142.64;100.00;58178.75;5041735;28;20038;-63
2022/06/11 06:04:51;;;;;;;16.63;4.43;;;;;;;-142.64;100.00;58178.75;5033129;28;20091;-64
2022/06/11 06:07:17;;;;;;;16.92;4.40;;;;;;;-142.64;100.00;58178.75;5034033;28;20037;-64
2022/06/11 06:09:42;;;;;;;18.80;5.03;;;;;;;-142.64;100.00;58178.75;5033698;28;20140;-64
2022/06/11 06:12:09;;;;;;;19.83;4.43;;;;;;;-142.64;100.00;58178.75;5034096;28;20069;-64
2022/06/11 06:14:35;;;;;;;20.83;5.00;;;;;;;-142.64;100.00;58178.75;5039421;28;20452;-64
2022/06/11 06:17:00;;;;;;;12.88;3.83;;;;;;;-142.64;100.00;58178.75;5034018;28;20041;-64
2022/06/11 06:19:26;;;;;;;16.10;4.22;;;;;;;-142.64;100.00;58178.75;5032710;28;20543;-62
2022/06/11 06:21:51;;;;;;;14.35;4.00;;;;;;;-142.64;100.00;58178.75;5050278;28;20064;-63
2022/06/11 06:24:16;;;;;;;14.23;4.65;;;;;;;-142.64;100.00;58178.75;5050690;28;20072;-63
2022/06/11 06:26:42;;;;;;;15.98;4.50;;;;;;;-142.64;100.00;58178.75;5051006;28;20439;-64
2022/06/11 06:29:07;;;;;;;14.88;4.10;;;;;;;-142.64;100.00;58178.75;5041328;28;20041;-63
2022/06/11 06:31:33;;;;;;;16.02;3.70;;;;;;;-142.64;100.00;58178.75;5052716;28;20431;-63
2022/06/11 06:34:01;;;;;;;15.75;4.13;;;;;;;-142.64;100.00;58178.75;5032317;28;20456;-63
2022/06/11 06:36:28;;;;;;;15.00;4.63;;;;;;;-142.64;100.00;58178.75;5029369;28;20038;-62
2022/06/11 06:38:54;;;;;;;15.23;4.10;;;;;;;-142.64;100.00;58178.75;5030079;28;20044;-62
2022/06/11 06:41:20;;;;;;;18.55;4.60;;;;;;;-142.64;100.00;58178.75;5030743;28;20108;-64
2022/06/11 06:43:46;;;;;;;17.30;5.10;;;;;;;-142.64;100.00;58178.75;5050183;28;20033;-64
2022/06/11 06:46:12;;;;;;;19.15;4.18;;;;;;;-142.64;100.00;58178.75;5052930;28;20044;-64
2022/06/11 06:48:38;;;;;;;18.95;3.92;;;;;;;-142.64;100.00;58178.75;5051750;28;20044;-63
2022/06/11 06:51:03;;;;;;;15.48;5.22;;;;;;;-142.64;100.00;58178.75;5050911;28;20408;-62
2022/06/11 06:53:29;;;;;;;15.45;3.85;;;;;;;-142.64;100.00;58178.75;5051199;28;20048;-62
2022/06/11 06:55:54;;;;;;;16.20;4.57;;;;;;;-142.64;100.00;58178.75;5032082;28;20045;-63
2022/06/11 06:58:20;;;;;;;20.60;4.40;;;;;;;-142.64;100.00;58178.75;5033248;28;20041;-63
2022/06/11 07:00:46;;;;;;;15.55;4.07;;;;;;;-142.64;100.00;58178.75;5033148;28;20034;-63
2022/06/11 07:03:12;;;;;;;12.60;3.67;;;;;;;-142.64;100.00;58178.75;5033192;28;20058;-62
2022/06/11 07:05:39;;;;;;;16.70;4.35;;;;;;;-142.64;100.00;58178.75;5031673;28;20122;-60
2022/06/11 07:08:06;;;;;;;14.90;3.92;;;;;;;-142.64;100.00;58178.75;5061015;28;20038;-63
2022/06/11 07:10:32;;;;;;;14.90;4.75;;;;;;;-142.64;100.00;58178.75;5032918;28;20095;-63
2022/06/11 07:12:57;;;;;;;13.13;3.88;;;;;;;-142.64;100.00;58178.75;5031853;28;20029;-63
2022/06/11 07:15:23;;;;;;;16.40;4.07;;;;;;;-142.64;100.00;58178.75;5035696;28;20033;-62
2022/06/11 07:17:59;;;;;;;18.92;4.07;;;;;;;-142.64;100.00;58178.75;5051457;28;20039;-62
2022/06/11 07:20:26;;;;;;;15.00;4.43;;;;;;;-142.64;100.00;58178.75;5032579;28;20068;-62
2022/06/11 07:22:56;;;;;;;15.30;3.70;;;;;;;-142.64;100.00;58178.75;5033006;28;20037;-61
2022/06/11 07:25:22;;;;;;;13.50;3.75;;;;;;;-142.64;100.00;58178.75;5032708;28;20037;-63
2022/06/11 07:27:52;;;;;;;15.05;3.83;;;;;;;-142.64;100.00;58178.75;5031563;28;20571;-63
2022/06/11 07:30:20;;;;;;;12.30;3.60;;;;;;;-142.64;100.00;58178.75;5034035;28;20025;-62
2022/06/11 07:32:49;;;;;;;9.52;3.28;;;;;;;-142.64;100.00;58178.75;5033511;28;20056;-62
2022/06/11 07:35:16;;;;;;;14.50;3.95;;;;;;;-142.64;100.00;58178.75;5034268;28;20032;-63
2022/06/11 07:37:50;;;;;;;18.05;4.35;;;;;;;-142.64;100.00;58178.75;5050735;28;20021;-63
2022/06/11 07:40:18;;;;;;;13.48;4.60;;;;;;;-142.64;100.00;58178.75;5049489;28;20033;-61
2022/06/11 07:42:44;;;;;;;12.50;3.65;;;;;;;-142.64;100.00;58178.75;5036517;28;20053;-61
2022/06/11 07:45:09;;;;;;;11.73;3.50;;;;;;;-142.64;100.00;58178.75;5047332;28;20034;-62
2022/06/11 07:47:53;;;;;;;10.98;3.05;;;;;;;-142.64;100.00;58178.75;5032183;28;20033;-62
2022/06/11 07:50:22;;;;;;;8.05;2.80;;;;;;;-142.64;100.00;58178.75;5032242;28;20033;-62
2022/06/11 07:52:48;;;;;;;9.00;3.28;;;;;;;-142.64;100.00;58178.75;5032130;28;20607;-64
2022/06/11 07:55:13;;;;;;;9.95;3.13;;;;;;;-142.64;100.00;58178.75;5032355;28;20113;-64
2022/06/11 07:57:39;;;;;;;9.80;3.10;;;;;;;-142.64;100.00;58178.75;5032153;28;20120;-65
2022/06/11 08:00:06;;;;;;;10.68;3.70;;;;;;;-142.64;100.00;58178.75;5032158;28;20037;-63
2022/06/11 08:02:32;;;;;;;8.75;3.40;;;;;;;-142.64;100.00;58178.75;5032309;28;20432;-64
2022/06/11 08:04:57;;;;;;;10.30;3.03;;;;;;;-142.64;100.00;58178.75;5032282;28;20088;-61
2022/06/11 08:07:23;;;;;;;14.40;3.17;;;;;;;-142.64;100.00;58178.75;5032100;28;20083;-61
2022/06/11 08:09:48;;;;;;;8.00;2.80;;;;;;;-142.64;100.00;58178.75;5032772;28;20060;-63
2022/06/11 08:12:14;;;;;;;11.75;3.75;;;;;;;-142.64;100.00;58178.75;5050695;28;20395;-63
2022/06/11 08:14:39;;;;;;;15.68;3.28;;;;;;;-142.64;100.00;58178.75;5052073;28;20087;-62
2022/06/11 08:17:04;;;;;;;13.02;3.80;;;;;;;-142.64;100.00;58178.75;5033474;28;20365;-60
2022/06/11 08:19:30;;;;;;;13.18;3.40;;;;;;;-142.64;100.00;58178.75;5032011;28;20503;-61
2022/06/11 08:21:56;;;;;;;9.95;2.72;;;;;;;-142.64;100.00;58178.75;5032152;28;20042;-62
2022/06/11 08:24:22;;;;;;;14.95;3.50;;;;;;;-142.64;100.00;58178.75;5031913;28;20037;-61
2022/06/11 08:26:48;;;;;;;13.32;3.38;;;;;;;-142.64;100.00;58178.75;5031932;28;20455;-60
2022/06/11 08:29:13;;;;;;;6.05;3.15;;;;;;;-142.64;100.00;58178.75;5031614;28;20124;-62
2022/06/11 08:31:38;;;;;;;10.85;2.95;;;;;;;-142.64;100.00;58178.75;5033014;28;20121;-62
2022/06/11 08:34:04;;;;;;;14.35;3.60;;;;;;;-142.64;100.00;58178.75;5031930;28;20037;-61
2022/06/11 08:36:29;;;;;;;10.40;3.35;;;;;;;-142.64;100.00;58178.75;5031933;28;20435;-60
2022/06/11 08:38:55;;;;;;;13.05;3.20;;;;;;;-142.64;100.00;58178.75;5033639;28;20021;-64
2022/06/11 08:41:24;;;;;;;10.60;3.13;;;;;;;-142.64;100.00;58178.75;5049393;28;20041;-63
2022/06/11 08:44:08;;;;;;;8.10;3.20;;;;;;;-142.64;100.00;58178.75;5052099;28;20036;-63
2022/06/11 08:46:35;;;;;;;6.63;2.80;;;;;;;-142.64;100.00;58178.75;5053207;28;20048;-62
2022/06/11 08:49:04;;;;;;;11.40;2.70;;;;;;;-142.64;100.00;58178.75;5054208;28;20037;-62
2022/06/11 08:51:47;;;;;;;10.65;3.08;;;;;;;-142.64;100.00;58178.75;5055419;28;20116;-61
2022/06/11 08:54:19;;;;;;;8.43;2.70;;;;;;;-142.64;100.00;58178.75;5055392;28;20037;-62
2022/06/11 08:56:44;;;;;;;9.57;3.42;;;;;;;-142.64;100.00;58178.75;5055440;28;20108;-62
2022/06/11 08:59:28;;;;;;;11.57;4.23;;;;;;;-142.64;100.00;58178.75;5055401;28;20294;-64
2022/06/11 09:02:30;;;;;;;11.23;3.80;;;;;;;-142.64;100.00;58178.75;5055279;28;20293;-64
2022/06/11 09:05:06;;;;;;;9.75;2.95;;;;;;;-142.64;100.00;58178.75;5055366;28;20029;-60
2022/06/11 09:07:43;;;;;;;9.30;2.97;;;;;;;-142.64;100.00;58178.75;5053983;28;20396;-60
2022/06/11 09:10:20;;;;;;;9.35;3.53;;;;;;;-142.64;100.00;58178.75;5053684;28;20132;-62
2022/06/11 09:13:09;;;;;;;10.75;3.28;;;;;;;-142.64;100.00;58178.75;5055240;28;20040;-61
2022/06/11 09:15:49;;;;;;;10.32;3.47;;;;;;;-142.64;100.00;58178.75;5055060;28;20075;-62
2022/06/11 09:18:42;;;;;;;10.77;3.28;;;;;;;-142.64;100.00;58178.75;5054883;28;20049;-62
2022/06/11 09:21:18;;;;;;;9.43;3.28;;;;;;;-142.64;100.00;58178.75;5055072;28;20045;-62
2022/06/11 09:24:28;;;;;;;16.60;3.70;;;;;;;-142.64;100.00;58178.75;5053734;28;20663;-62
2022/06/11 09:27:05;;;;;;;11.32;3.83;;;;;;;-142.64;100.00;58178.75;5051313;28;20037;-62
2022/06/11 09:29:43;;;;;;;11.95;3.75;;;;;;;-142.64;100.00;58178.75;5053434;28;20029;-62
2022/06/11 09:32:19;;;;;;;10.27;3.53;;;;;;;-142.64;100.00;58178.75;5054688;28;20021;-64
2022/06/11 09:34:49;;;;;;;10.73;3.33;;;;;;;-142.64;100.00;58178.75;5054787;28;20056;-61
2022/06/11 09:37:38;;;;;;;10.35;3.10;;;;;;;-142.64;100.00;58178.75;5054703;28;20112;-60
2022/06/11 09:40:33;;;;;;;7.78;2.60;;;;;;;-142.64;100.00;58178.75;5053847;28;20041;-59
2022/06/11 09:43:12;;;;;;;12.90;3.50;;;;;;;-142.64;100.00;58178.75;5053441;28;20033;-62
2022/06/11 09:46:14;;;;;;;12.00;3.90;;;;;;;-142.64;100.00;58178.75;5054445;28;20029;-61
2022/06/11 09:48:57;;;;;;;11.10;3.55;;;;;;;-142.64;100.00;58178.75;5053267;28;20063;-62
2022/06/11 09:51:47;;;;;;;8.48;3.13;;;;;;;-142.64;100.00;58178.75;5054100;28;20387;-61
2022/06/11 09:54:34;;;;;;;12.70;3.00;;;;;;;-142.64;100.00;58178.75;5054167;28;20025;-60
2022/06/11 09:57:08;;;;;;;8.65;3.00;;;;;;;-142.64;100.00;58178.75;5053093;28;20499;-58
2022/06/11 09:59:41;;;;;;;9.70;2.95;;;;;;;-142.64;100.00;58178.75;5054131;28;20480;-60
2022/06/11 10:02:06;;;;;;;10.60;3.17;;;;;;;-142.64;100.00;58178.75;5053980;28;20480;-58
2022/06/11 10:04:34;;;;;;;12.80;3.72;;;;;;;-142.64;100.00;58178.75;5054330;28;20040;-54
2022/06/11 10:07:06;;;;;;;13.55;3.75;;;;;;;-142.64;100.00;58178.75;5052859;28;20031;-51
2022/06/11 10:09:39;;;;;;;14.13;4.03;;;;;;;-142.64;100.00;58178.75;5052738;28;20364;-58
2022/06/11 10:12:14;;;;;;;9.98;3.40;;;;;;;-142.64;100.00;58178.75;5052770;28;20025;-53
2022/06/11 10:14:56;;;;;;;13.43;2.70;;;;;;;-142.64;100.00;58178.75;5052825;28;20029;-57
2022/06/11 10:17:29;;;;;;;14.48;3.75;;;;;;;-142.64;100.00;58178.75;5052461;28;20095;-54
2022/06/11 10:20:02;;;;;;;12.18;3.72;;;;;;;-142.64;100.00;58178.75;5052624;28;20039;-54
2022/06/11 10:22:32;;;;;;;15.18;4.63;;;;;;;-142.64;100.00;58178.75;5052876;28;20037;-50
2022/06/11 10:25:02;;;;;;;15.27;4.70;;;;;;;-142.64;100.00;58178.75;5052532;28;20033;-56
2022/06/11 10:27:30;;;;;;;15.55;4.05;;;;;;;-142.64;100.00;58178.75;5053756;28;20037;-52
2022/06/11 10:30:02;;;;;;;13.70;4.13;;;;;;;-142.64;100.00;58178.75;5052253;28;20512;-58
2022/06/11 10:32:31;;;;;;;11.77;3.65;;;;;;;-142.64;100.00;58178.75;5053367;28;20419;-52
2022/06/11 10:35:03;;;;;;;15.40;4.07;;;;;;;-142.64;100.00;58178.75;5053464;28;20037;-56
2022/06/11 10:37:39;;;;;;;10.40;3.13;;;;;;;-142.64;100.00;58178.75;5052312;28;20071;-55
2022/06/11 10:40:44;;;;;;;11.70;2.95;;;;;;;-142.64;100.00;58178.75;5052426;28;20025;-54
2022/06/11 10:43:17;;;;;;;10.30;3.10;;;;;;;-142.64;100.00;58178.75;5053069;28;20094;-57
2022/06/11 10:45:43;;;;;;;7.90;2.17;;;;;;;-142.64;100.00;58178.75;5052096;28;20021;-55
2022/06/11 10:48:16;;;;;;;11.18;3.28;;;;;;;-142.64;100.00;58178.75;5051775;28;20499;-52
2022/06/11 10:50:41;;;;;;;13.05;3.63;;;;;;;-142.64;100.00;58178.75;5053437;28;20029;-52
2022/06/11 10:53:06;;;;;;;9.73;3.25;;;;;;;-142.64;100.00;58178.75;5051928;28;20044;-52
2022/06/11 10:55:32;;;;;;;11.75;3.55;;;;;;;-142.64;100.00;58178.75;5053237;28;20025;-51
2022/06/11 10:58:02;;;;;;;8.98;3.35;;;;;;;-142.64;100.00;58178.75;5052943;28;20066;-49
2022/06/11 11:00:36;;;;;;;8.93;2.85;;;;;;;-142.64;100.00;58178.75;5051782;28;20033;-54
2022/06/11 11:03:13;;;;;;;9.02;3.05;;;;;;;-142.64;100.00;58178.75;5035351;28;20067;-54
2022/06/11 11:05:53;;;;;;;8.98;3.33;;;;;;;-142.64;100.00;58178.75;5050879;28;20025;-55
2022/06/11 11:08:18;;;;;;;10.15;3.25;;;;;;;-142.64;100.00;58178.75;5052619;28;20128;-52
2022/06/11 11:10:52;;;;;;;11.98;3.55;;;;;;;-142.64;100.00;58178.75;5051567;28;20133;-56
2022/06/11 11:13:42;;;;;;;12.30;3.75;;;;;;;-142.64;100.00;58178.75;5052916;28;20474;-54
2022/06/11 11:16:15;;;;;;;10.20;3.58;;;;;;;-142.64;100.00;58178.75;5051535;28;20539;-53
2022/06/11 11:18:54;;;;;;;11.02;3.25;;;;;;;-142.64;100.00;58178.75;5052600;28;20090;-53
2022/06/11 11:21:27;;;;;;;9.65;2.92;;;;;;;-142.64;100.00;58178.75;5052491;28;20415;-57
2022/06/11 11:23:56;;;;;;;9.07;3.38;;;;;;;-142.64;100.00;58178.75;5052819;28;20029;-54